createdAt,value
2022-09-07T00:00:03.271Z,5.20
2022-09-07T00:02:51.249Z,6.20
2022-09-07T00:05:17.943Z,5.80
2022-09-07T00:07:44.572Z,4.70
2022-09-07T00:10:11.250Z,4.80
2022-09-07T00:12:37.951Z,4.80
2022-09-07T00:15:08.980Z,4.60
2022-09-07T00:17:35.764Z,5.50
2022-09-07T00:20:05.151Z,5.20
2022-09-07T00:22:32.863Z,6.70
2022-09-07T00:24:59.793Z,6.10
2022-09-07T00:27:26.680Z,6.40
2022-09-07T00:29:53.482Z,7.40
2022-09-07T00:32:20.111Z,5.30
2022-09-07T00:34:46.709Z,5.50
2022-09-07T00:37:13.402Z,5.00
2022-09-07T00:39:40.135Z,5.20
2022-09-07T00:42:06.858Z,6.30
2022-09-07T00:45:14.008Z,5.10
2022-09-07T00:47:47.873Z,6.70
2022-09-07T00:50:23.785Z,5.20
2022-09-07T00:52:57.957Z,4.80
2022-09-07T00:55:27.259Z,5.40
2022-09-07T00:57:55.792Z,7.60
2022-09-07T01:00:22.626Z,4.90
2022-09-07T01:02:52.661Z,4.90
2022-09-07T01:05:27.156Z,5.70
2022-09-07T01:07:56.203Z,5.70
2022-09-07T01:10:32.923Z,7.40
2022-09-07T01:13:00.425Z,7.40
2022-09-07T01:15:40.168Z,7.60
2022-09-07T01:18:35.306Z,7.60
2022-09-07T01:21:33.865Z,4.80
2022-09-07T01:24:45.491Z,8.10
2022-09-07T01:27:33.687Z,7.90
2022-09-07T01:30:06.490Z,7.40
2022-09-07T01:35:13.862Z,7.40
2022-09-07T01:38:18.776Z,7.70
2022-09-07T01:40:52.402Z,8.50
2022-09-07T01:43:34.929Z,6.70
2022-09-07T01:46:12.076Z,7.50
2022-09-07T01:48:40.409Z,8.20
2022-09-07T01:51:07.145Z,6.40
2022-09-07T01:53:51.729Z,6.10
2022-09-07T01:56:29.952Z,8.30
2022-09-07T01:59:03.429Z,8.10
2022-09-07T02:01:35.068Z,5.40
2022-09-07T02:04:11.338Z,9.50
2022-09-07T02:06:48.220Z,8.50
2022-09-07T02:09:26.069Z,7.20
2022-09-07T02:11:54.322Z,9.20
2022-09-07T02:14:21.318Z,10.00
2022-09-07T02:17:19.511Z,7.10
2022-09-07T02:19:53.633Z,5.90
2022-09-07T02:22:27.337Z,8.30
2022-09-07T02:24:59.404Z,6.30
2022-09-07T02:27:40.940Z,7.80
2022-09-07T02:30:09.318Z,3.60
2022-09-07T02:32:36.100Z,6.70
2022-09-07T02:35:03.502Z,6.80
2022-09-07T02:37:32.223Z,5.30
2022-09-07T02:39:59.813Z,5.20
2022-09-07T02:42:32.573Z,5.10
2022-09-07T02:45:02.652Z,7.10
2022-09-07T02:47:32.115Z,6.80
2022-09-07T02:50:30.266Z,7.50
2022-09-07T02:53:23.881Z,7.60
2022-09-07T02:56:12.298Z,5.60
2022-09-07T02:59:00.293Z,4.20
2022-09-07T03:02:02.039Z,5.90
2022-09-07T03:04:57.015Z,6.10
2022-09-07T03:07:29.486Z,5.40
2022-09-07T03:09:57.821Z,5.90
2022-09-07T03:12:24.831Z,8.20
2022-09-07T03:14:51.644Z,6.10
2022-09-07T03:17:18.431Z,6.50
2022-09-07T03:19:45.220Z,6.50
2022-09-07T03:22:11.950Z,7.70
2022-09-07T03:24:38.727Z,6.30
2022-09-07T03:27:05.733Z,8.00
2022-09-07T03:29:32.565Z,7.20
2022-09-07T03:31:59.268Z,6.90
2022-09-07T03:34:26.008Z,9.80
2022-09-07T03:36:52.619Z,9.70
2022-09-07T03:39:23.130Z,8.00
2022-09-07T03:41:50.144Z,7.00
2022-09-07T03:44:16.899Z,6.40
2022-09-07T03:46:43.688Z,10.10
2022-09-07T03:49:10.932Z,8.50
2022-09-07T03:51:38.341Z,7.00
2022-09-07T03:54:05.272Z,9.00
2022-09-07T03:56:32.249Z,6.80
2022-09-07T03:58:58.957Z,10.20
2022-09-07T04:01:26.717Z,8.10
2022-09-07T04:04:01.748Z,5.80
2022-09-07T04:06:29.769Z,9.30
2022-09-07T04:08:56.965Z,8.70
2022-09-07T04:11:23.628Z,6.70
2022-09-07T04:13:50.453Z,6.80
2022-09-07T04:16:23.060Z,9.40
2022-09-07T04:18:51.219Z,9.40
2022-09-07T04:21:18.146Z,7.20
2022-09-07T04:23:45.193Z,9.10
2022-09-07T04:26:21.017Z,8.10
2022-09-07T04:28:48.589Z,9.10
2022-09-07T04:31:17.348Z,9.40
2022-09-07T04:33:45.644Z,9.60
2022-09-07T04:36:12.857Z,8.50
2022-09-07T04:38:40.259Z,6.90
2022-09-07T04:41:10.066Z,5.50
2022-09-07T04:43:38.366Z,5.30
2022-09-07T04:46:08.321Z,5.70
2022-09-07T04:48:35.052Z,6.10
2022-09-07T04:51:09.717Z,6.90
2022-09-07T04:53:37.815Z,7.00
2022-09-07T04:56:05.288Z,5.70
2022-09-07T04:58:32.398Z,5.90
2022-09-07T05:01:06.541Z,8.30
2022-09-07T05:03:37.064Z,6.90
2022-09-07T05:06:05.485Z,8.90
2022-09-07T05:08:43.982Z,8.30
2022-09-07T05:11:12.732Z,5.50
2022-09-07T05:13:39.520Z,6.70
2022-09-07T05:16:14.474Z,9.10
2022-09-07T05:18:42.075Z,6.90
2022-09-07T05:21:10.427Z,9.70
2022-09-07T05:23:38.115Z,7.20
2022-09-07T05:26:05.966Z,6.50
2022-09-07T05:28:34.532Z,9.10
2022-09-07T05:31:21.723Z,6.90
2022-09-07T05:36:40.482Z,6.10
2022-09-07T05:39:08.703Z,7.70
2022-09-07T05:41:35.554Z,7.80
2022-09-07T05:46:52.223Z,6.00
2022-09-07T05:49:18.822Z,7.50
2022-09-07T05:51:45.601Z,7.20
2022-09-07T05:54:12.347Z,5.50
2022-09-07T05:56:39.411Z,6.00
2022-09-07T05:59:06.816Z,4.80
2022-09-07T06:01:35.032Z,5.10
2022-09-07T06:04:02.071Z,4.70
2022-09-07T06:06:28.857Z,4.70
2022-09-07T06:08:57.161Z,7.50
2022-09-07T06:11:26.279Z,5.20
2022-09-07T06:13:53.228Z,5.30
2022-09-07T06:16:20.777Z,5.70
2022-09-07T06:18:49.618Z,9.00
2022-09-07T06:21:19.496Z,8.70
2022-09-07T06:23:47.640Z,6.90
2022-09-07T06:26:16.053Z,9.00
2022-09-07T06:28:50.190Z,9.30
2022-09-07T06:31:20.344Z,6.40
2022-09-07T06:33:48.326Z,5.90
2022-09-07T06:36:16.700Z,9.40
2022-09-07T06:38:43.937Z,10.80
2022-09-07T06:44:03.432Z,8.40
2022-09-07T06:49:17.187Z,8.10
2022-09-07T06:51:44.081Z,7.30
2022-09-07T06:56:57.611Z,9.30
2022-09-07T06:59:24.392Z,13.80
2022-09-07T07:01:51.197Z,14.50
2022-09-07T07:04:17.960Z,13.60
2022-09-07T07:06:44.588Z,10.30
2022-09-07T07:09:12.835Z,9.30
2022-09-07T07:11:39.624Z,9.40
2022-09-07T07:14:06.355Z,10.20
2022-09-07T07:16:33.147Z,9.30
2022-09-07T07:18:59.967Z,11.40
2022-09-07T07:21:28.995Z,10.20
2022-09-07T07:24:07.533Z,8.30
2022-09-07T07:26:35.040Z,8.00
2022-09-07T07:29:03.265Z,7.20
2022-09-07T07:31:32.727Z,8.10
2022-09-07T07:33:59.548Z,7.30
2022-09-07T07:36:27.547Z,8.50
2022-09-07T07:41:54.394Z,6.00
2022-09-07T07:44:23.141Z,6.90
2022-09-07T07:46:50.726Z,6.80
2022-09-07T07:49:17.634Z,6.80
2022-09-07T07:54:33.664Z,6.10
2022-09-07T07:57:00.527Z,9.30
2022-09-07T07:59:27.373Z,6.90
2022-09-07T08:01:54.318Z,4.50
2022-09-07T08:04:22.591Z,4.90
2022-09-07T08:06:49.424Z,6.40
2022-09-07T08:09:16.175Z,7.20
2022-09-07T08:11:42.985Z,5.40
2022-09-07T08:14:09.728Z,6.10
2022-09-07T08:16:37.027Z,6.60
2022-09-07T08:19:05.180Z,4.40
2022-09-07T08:21:31.885Z,5.10
2022-09-07T08:23:59.680Z,5.10
2022-09-07T08:26:27.126Z,4.30
2022-09-07T08:28:54.688Z,5.80
2022-09-07T08:31:22.284Z,6.40
2022-09-07T08:33:48.999Z,5.70
2022-09-07T08:36:20.951Z,8.00
2022-09-07T08:38:47.982Z,10.20
2022-09-07T08:41:32.585Z,11.60
2022-09-07T08:44:28.092Z,12.00
2022-09-07T08:46:59.882Z,13.20
2022-09-07T08:49:51.129Z,15.50
2022-09-07T08:52:24.741Z,17.00
2022-09-07T08:55:12.513Z,13.80
2022-09-07T08:57:45.272Z,14.10
2022-09-07T09:02:44.587Z,10.70
2022-09-07T09:05:35.519Z,13.50
2022-09-07T09:08:56.069Z,12.90
2022-09-07T09:11:47.427Z,14.00
2022-09-07T09:14:20.080Z,15.10
2022-09-07T09:16:52.441Z,14.30
2022-09-07T09:22:13.134Z,9.60
2022-09-07T09:24:48.403Z,9.80
2022-09-07T09:27:15.918Z,10.60
2022-09-07T09:29:42.748Z,13.40
2022-09-07T09:32:32.723Z,12.80
2022-09-07T09:35:30.980Z,13.60
2022-09-07T09:37:57.815Z,15.40
2022-09-07T09:40:31.393Z,12.20
2022-09-07T09:43:06.593Z,10.20
2022-09-07T09:48:36.021Z,11.10
2022-09-07T09:53:58.679Z,11.00
2022-09-07T10:05:26.608Z,7.90
2022-09-07T10:07:54.004Z,8.60
2022-09-07T10:10:20.876Z,8.30
2022-09-07T10:12:51.636Z,8.20
2022-09-07T10:15:28.803Z,8.40
2022-09-07T10:17:56.975Z,8.00
2022-09-07T10:20:37.656Z,10.30
2022-09-07T10:23:06.272Z,10.40
2022-09-07T10:25:35.744Z,9.70
2022-09-07T10:28:14.864Z,9.90
2022-09-07T10:31:14.095Z,9.90
2022-09-07T10:36:58.452Z,12.10
2022-09-07T10:39:30.875Z,7.30
2022-09-07T10:45:17.695Z,7.10
2022-09-07T10:48:08.868Z,10.10
2022-09-07T10:50:53.161Z,6.00
2022-09-07T10:53:42.779Z,9.50
2022-09-07T10:56:39.075Z,7.40
2022-09-07T11:00:09.268Z,7.50
2022-09-07T11:05:47.670Z,10.20
2022-09-07T11:09:15.169Z,8.70
2022-09-07T11:14:25.335Z,8.50
2022-09-07T11:17:01.272Z,8.90
2022-09-07T11:19:43.264Z,12.90
2022-09-07T11:22:38.312Z,11.30
2022-09-07T11:25:32.818Z,10.60
2022-09-07T11:28:24.993Z,6.00
2022-09-07T11:31:03.433Z,6.70
2022-09-07T11:33:37.180Z,5.80
2022-09-07T11:36:13.200Z,5.40
2022-09-07T11:38:48.988Z,7.30
2022-09-07T11:41:28.493Z,10.30
2022-09-07T11:44:02.515Z,7.90
2022-09-07T11:46:35.691Z,5.40
2022-09-07T11:49:05.584Z,4.40
2022-09-07T11:51:39.483Z,5.90
2022-09-07T11:54:16.727Z,6.60
2022-09-07T11:56:49.421Z,5.90
2022-09-07T11:59:41.908Z,6.00
2022-09-07T12:05:14.346Z,5.20
2022-09-07T12:07:41.064Z,3.60
2022-09-07T12:10:46.243Z,4.30
2022-09-07T12:13:42.756Z,5.10
2022-09-07T12:16:23.124Z,5.40
2022-09-07T12:19:24.620Z,4.80
2022-09-07T12:21:51.259Z,5.50
2022-09-07T12:24:38.790Z,4.80
2022-09-07T12:27:25.878Z,4.20
2022-09-07T12:29:59.031Z,4.30
2022-09-07T12:32:55.740Z,3.60
2022-09-07T12:35:25.920Z,4.50
2022-09-07T12:37:54.482Z,3.90
2022-09-07T12:40:27.602Z,3.90
2022-09-07T12:43:12.533Z,3.40
2022-09-07T12:45:39.357Z,3.70
2022-09-07T12:48:49.056Z,3.50
2022-09-07T12:54:33.249Z,3.50
2022-09-07T12:57:30.625Z,3.60
2022-09-07T13:00:15.409Z,3.50
2022-09-07T13:02:42.165Z,3.10
2022-09-07T13:05:08.922Z,3.60
2022-09-07T13:07:45.522Z,3.40
2022-09-07T13:10:32.155Z,3.60
2022-09-07T13:13:17.126Z,3.40
2022-09-07T13:15:50.454Z,3.40
2022-09-07T13:18:29.290Z,3.40
2022-09-07T13:21:08.269Z,3.40
2022-09-07T13:23:41.907Z,3.40
2022-09-07T13:26:30.182Z,3.50
2022-09-07T13:29:11.014Z,3.40
2022-09-07T13:31:48.283Z,3.20
2022-09-07T13:34:33.287Z,3.20
2022-09-07T13:37:04.217Z,3.00
2022-09-07T13:39:44.472Z,3.20
2022-09-07T13:42:24.616Z,3.10
2022-09-07T13:44:57.047Z,3.00
2022-09-07T13:47:45.658Z,3.40
2022-09-07T13:50:36.030Z,3.20
2022-09-07T13:53:37.052Z,3.50
2022-09-07T13:56:20.766Z,3.70
2022-09-07T13:58:51.432Z,3.60
2022-09-07T14:01:27.088Z,3.90
2022-09-07T14:04:06.994Z,3.50
2022-09-07T14:06:35.715Z,3.30
2022-09-07T14:09:21.730Z,3.40
2022-09-07T14:11:52.031Z,3.80
2022-09-07T14:14:25.626Z,3.60
2022-09-07T14:17:01.284Z,3.40
2022-09-07T14:19:37.152Z,3.80
2022-09-07T14:22:18.454Z,2.90
2022-09-07T14:24:55.171Z,3.80
2022-09-07T14:27:23.501Z,3.40
2022-09-07T14:29:50.648Z,3.10
2022-09-07T14:32:23.421Z,3.40
2022-09-07T14:34:51.657Z,3.60
2022-09-07T14:37:22.264Z,2.90
2022-09-07T14:39:50.165Z,3.50
2022-09-07T14:42:24.100Z,3.60
2022-09-07T14:45:18.596Z,3.50
2022-09-07T14:47:47.925Z,3.50
2022-09-07T14:50:21.081Z,3.20
2022-09-07T14:55:41.417Z,3.70
2022-09-07T14:58:14.049Z,3.50
2022-09-07T15:00:43.611Z,3.70
2022-09-07T15:03:33.258Z,3.10
2022-09-07T15:06:01.860Z,3.80
2022-09-07T15:08:46.129Z,3.90
2022-09-07T15:11:33.904Z,4.40
2022-09-07T15:14:17.552Z,4.90
2022-09-07T15:19:42.931Z,7.50
2022-09-07T15:22:11.332Z,8.30
2022-09-07T15:24:38.097Z,6.40
2022-09-07T15:27:23.659Z,3.90
2022-09-07T15:29:50.549Z,5.90
2022-09-07T15:32:18.456Z,3.90
2022-09-07T15:34:45.604Z,3.20
2022-09-07T15:39:58.945Z,3.40
2022-09-07T15:45:13.067Z,6.90
2022-09-07T15:47:47.246Z,3.50
2022-09-07T15:50:17.167Z,4.30
2022-09-07T15:52:46.541Z,4.30
2022-09-07T15:55:14.426Z,3.60
2022-09-07T15:57:51.260Z,3.70
2022-09-07T16:00:19.712Z,4.30
2022-09-07T16:03:06.076Z,4.50
2022-09-07T16:05:33.867Z,3.80
2022-09-07T16:11:05.254Z,4.30
2022-09-07T16:13:32.576Z,3.70
2022-09-07T16:15:59.913Z,4.00
2022-09-07T16:18:31.270Z,3.70
2022-09-07T16:21:04.969Z,3.60
2022-09-07T16:23:31.764Z,3.70
2022-09-07T16:26:00.517Z,4.00
2022-09-07T16:28:28.369Z,3.50
2022-09-07T16:30:56.241Z,3.70
2022-09-07T16:33:31.254Z,3.60
2022-09-07T16:36:06.294Z,3.90
2022-09-07T16:38:48.867Z,4.20
2022-09-07T16:41:22.177Z,3.90
2022-09-07T16:43:49.422Z,3.10
2022-09-07T16:46:18.600Z,3.90
2022-09-07T16:48:45.254Z,3.70
2022-09-07T16:51:13.931Z,3.80
2022-09-07T16:53:40.550Z,3.70
2022-09-07T16:56:12.840Z,3.90
2022-09-07T16:58:42.675Z,4.20
2022-09-07T17:01:12.283Z,4.40
2022-09-07T17:03:39.362Z,4.10
2022-09-07T17:06:08.643Z,3.80
2022-09-07T17:08:36.871Z,4.60
2022-09-07T17:11:06.584Z,4.10
2022-09-07T17:13:34.652Z,3.70
2022-09-07T17:16:03.204Z,4.70
2022-09-07T17:21:17.850Z,3.40
2022-09-07T17:23:51.947Z,4.60
2022-09-07T17:26:26.729Z,3.80
2022-09-07T17:28:59.777Z,4.10
2022-09-07T17:34:19.141Z,5.30
2022-09-07T17:36:45.944Z,5.00
2022-09-07T17:39:14.915Z,4.50
2022-09-07T17:41:43.893Z,3.40
2022-09-07T17:44:10.950Z,5.50
2022-09-07T17:46:38.041Z,4.70
2022-09-07T17:49:07.265Z,4.30
2022-09-07T17:51:35.493Z,3.70
2022-09-07T17:54:12.936Z,4.20
2022-09-07T17:56:41.209Z,5.20
2022-09-07T18:01:56.011Z,6.30
2022-09-07T18:04:23.705Z,6.10
2022-09-07T18:06:50.847Z,6.00
2022-09-07T18:09:22.762Z,5.30
2022-09-07T18:11:50.347Z,5.40
2022-09-07T18:14:18.920Z,6.20
2022-09-07T18:16:49.398Z,6.50
2022-09-07T18:19:18.238Z,6.40
2022-09-07T18:21:47.107Z,7.10
2022-09-07T18:24:16.870Z,6.30
2022-09-07T18:26:50.672Z,6.10
2022-09-07T18:29:28.840Z,5.80
2022-09-07T18:31:58.698Z,5.50
2022-09-07T18:34:27.855Z,5.10
2022-09-07T18:36:55.182Z,6.70
2022-09-07T18:39:22.177Z,6.50
2022-09-07T18:41:49.000Z,7.10
2022-09-07T18:47:02.264Z,6.90
2022-09-07T18:49:28.869Z,8.00
2022-09-07T18:54:42.118Z,8.30
2022-09-07T18:57:09.264Z,7.10
2022-09-07T18:59:35.845Z,8.00
2022-09-07T19:02:05.021Z,6.40
2022-09-07T19:07:20.361Z,7.00
2022-09-07T19:09:47.536Z,10.70
2022-09-07T19:12:14.183Z,12.10
2022-09-07T19:14:41.658Z,9.40
2022-09-07T19:17:10.265Z,7.90
2022-09-07T19:19:38.417Z,7.40
2022-09-07T19:22:05.473Z,9.90
2022-09-07T19:24:32.661Z,11.90
2022-09-07T19:27:00.702Z,14.90
2022-09-07T19:29:28.453Z,12.30
2022-09-07T19:32:03.831Z,8.00
2022-09-07T19:34:41.079Z,9.40
2022-09-07T19:37:11.252Z,8.40
2022-09-07T19:39:38.389Z,7.90
2022-09-07T19:42:05.846Z,7.00
2022-09-07T19:44:35.046Z,6.10
2022-09-07T19:47:01.972Z,8.60
2022-09-07T19:49:29.858Z,7.80
2022-09-07T19:51:56.559Z,15.50
2022-09-07T19:54:23.219Z,17.80
2022-09-07T19:56:49.910Z,21.40
2022-09-07T19:59:18.534Z,17.90
2022-09-07T20:01:47.500Z,12.50
2022-09-07T20:04:20.074Z,12.30
2022-09-07T20:06:49.206Z,13.60
2022-09-07T20:09:17.659Z,11.40
2022-09-07T20:11:46.743Z,9.80
2022-09-07T20:14:14.698Z,11.50
2022-09-07T20:16:41.663Z,10.40
2022-09-07T20:19:11.368Z,9.60
2022-09-07T20:21:38.363Z,12.90
2022-09-07T20:24:05.388Z,12.90
2022-09-07T20:26:32.234Z,10.30
2022-09-07T20:29:23.408Z,9.40
2022-09-07T20:31:46.855Z,10.90
2022-09-07T20:34:13.862Z,14.40
2022-09-07T20:36:40.643Z,9.90
2022-09-07T20:39:07.295Z,13.60
2022-09-07T20:41:34.462Z,10.70
2022-09-07T20:44:03.305Z,8.40
2022-09-07T20:46:30.985Z,8.20
2022-09-07T20:48:58.214Z,10.70
2022-09-07T20:51:25.481Z,8.80
2022-09-07T20:53:53.176Z,12.70
2022-09-07T20:56:22.324Z,9.20
2022-09-07T20:58:53.815Z,8.70
2022-09-07T21:01:20.716Z,10.00
2022-09-07T21:03:52.495Z,12.40
2022-09-07T21:06:21.025Z,9.20
2022-09-07T21:08:49.227Z,10.90
2022-09-07T21:11:17.477Z,10.70
2022-09-07T21:13:44.424Z,13.30
2022-09-07T21:16:14.296Z,10.60
2022-09-07T21:18:41.363Z,9.80
2022-09-07T21:21:23.418Z,11.20
2022-09-07T21:24:03.180Z,12.10
2022-09-07T21:26:31.349Z,12.10
2022-09-07T21:29:00.624Z,10.50
2022-09-07T21:31:29.509Z,9.00
2022-09-07T21:33:59.171Z,11.70
2022-09-07T21:36:27.078Z,9.90
2022-09-07T21:38:55.310Z,8.00
2022-09-07T21:41:23.868Z,12.60
2022-09-07T21:44:03.453Z,8.80
2022-09-07T21:46:32.153Z,8.00
2022-09-07T21:48:59.853Z,8.40
2022-09-07T21:51:27.240Z,8.00
2022-09-07T21:53:56.607Z,7.80
2022-09-07T21:56:23.927Z,7.80
2022-09-07T21:58:54.964Z,10.80
2022-09-07T22:01:23.163Z,12.80
2022-09-07T22:04:01.642Z,8.90
2022-09-07T22:06:29.441Z,11.30
2022-09-07T22:08:56.392Z,12.20
2022-09-07T22:11:25.324Z,9.00
2022-09-07T22:13:57.118Z,12.60
2022-09-07T22:16:24.295Z,11.10
2022-09-07T22:18:51.731Z,8.80
2022-09-07T22:21:24.209Z,12.10
2022-09-07T22:23:54.314Z,7.70
2022-09-07T22:26:23.495Z,8.00
2022-09-07T22:28:50.509Z,7.40
2022-09-07T22:31:21.860Z,9.90
2022-09-07T22:33:50.228Z,11.10
2022-09-07T22:36:31.800Z,10.20
2022-09-07T22:39:00.638Z,11.20
2022-09-07T22:41:35.017Z,9.20
2022-09-07T22:44:02.337Z,7.90
2022-09-07T22:46:31.055Z,8.80
2022-09-07T22:48:58.539Z,9.30
2022-09-07T22:51:26.434Z,7.50
2022-09-07T22:53:54.216Z,11.50
2022-09-07T22:56:26.296Z,11.00
2022-09-07T22:58:59.475Z,10.20
2022-09-07T23:01:28.310Z,9.00
2022-09-07T23:03:56.124Z,8.70
2022-09-07T23:06:27.324Z,8.70
2022-09-07T23:08:56.372Z,9.20
2022-09-07T23:11:24.074Z,13.00
2022-09-07T23:13:55.123Z,13.50
2022-09-07T23:16:22.174Z,8.70
2022-09-07T23:18:49.218Z,7.70
2022-09-07T23:21:16.643Z,8.30
2022-09-07T23:23:43.332Z,9.20
2022-09-07T23:26:10.061Z,12.90
2022-09-07T23:28:36.767Z,13.80
2022-09-07T23:31:03.678Z,13.60
2022-09-07T23:33:31.160Z,7.80
2022-09-07T23:36:04.223Z,11.10
2022-09-07T23:38:31.837Z,7.50
2022-09-07T23:40:59.297Z,7.90
2022-09-07T23:43:28.411Z,9.00
2022-09-07T23:45:55.594Z,8.80
2022-09-07T23:48:22.988Z,8.60
2022-09-07T23:50:50.101Z,7.90
2022-09-07T23:53:17.468Z,8.40
2022-09-07T23:55:44.882Z,8.60
2022-09-07T23:58:11.537Z,13.00
